createdAt,value
2022-09-07T00:00:40.613Z,16.10
2022-09-07T00:03:08.027Z,16.10
2022-09-07T00:05:41.047Z,16.00
2022-09-07T00:08:08.301Z,16.00
2022-09-07T00:10:34.994Z,16.00
2022-09-07T00:13:02.186Z,16.00
2022-09-07T00:15:29.510Z,16.00
2022-09-07T00:17:56.641Z,15.90
2022-09-07T00:20:23.795Z,15.90
2022-09-07T00:22:50.886Z,15.90
2022-09-07T00:25:17.700Z,15.80
2022-09-07T00:27:44.891Z,15.80
2022-09-07T00:30:11.875Z,15.80
2022-09-07T00:32:38.656Z,15.80
2022-09-07T00:35:06.357Z,15.80
2022-09-07T00:37:33.319Z,15.70
2022-09-07T00:40:00.640Z,15.70
2022-09-07T00:42:28.350Z,15.70
2022-09-07T00:44:55.297Z,15.70
2022-09-07T00:47:25.256Z,15.60
2022-09-07T00:49:55.034Z,15.60
2022-09-07T00:52:23.681Z,15.60
2022-09-07T00:54:58.348Z,15.60
2022-09-07T00:57:30.342Z,15.50
2022-09-07T00:59:57.942Z,15.50
2022-09-07T01:02:28.294Z,15.50
2022-09-07T01:05:00.448Z,15.50
2022-09-07T01:07:27.530Z,15.40
2022-09-07T01:09:54.597Z,15.40
2022-09-07T01:12:22.064Z,15.40
2022-09-07T01:14:50.739Z,15.30
2022-09-07T01:17:26.190Z,15.30
2022-09-07T01:20:18.602Z,15.30
2022-09-07T01:22:48.559Z,15.30
2022-09-07T01:25:27.649Z,15.20
2022-09-07T01:28:06.918Z,15.20
2022-09-07T01:30:36.304Z,15.10
2022-09-07T01:33:23.225Z,15.10
2022-09-07T01:35:50.290Z,15.10
2022-09-07T01:38:20.206Z,15.00
2022-09-07T01:41:05.993Z,15.00
2022-09-07T01:44:02.186Z,15.00
2022-09-07T01:46:30.576Z,14.90
2022-09-07T01:49:02.910Z,14.90
2022-09-07T01:51:33.475Z,14.90
2022-09-07T01:54:11.843Z,14.90
2022-09-07T01:56:41.348Z,14.90
2022-09-07T01:59:16.371Z,14.90
2022-09-07T02:01:51.205Z,14.80
2022-09-07T02:04:24.938Z,14.80
2022-09-07T02:07:04.625Z,14.80
2022-09-07T02:09:41.725Z,14.80
2022-09-07T02:12:14.149Z,14.80
2022-09-07T02:14:43.087Z,14.80
2022-09-07T02:17:13.546Z,14.80
2022-09-07T02:19:48.660Z,14.90
2022-09-07T02:22:16.652Z,14.90
2022-09-07T02:24:45.894Z,14.90
2022-09-07T02:27:19.245Z,14.90
2022-09-07T02:29:47.204Z,14.90
2022-09-07T02:32:14.746Z,15.00
2022-09-07T02:34:42.231Z,15.00
2022-09-07T02:37:10.098Z,15.10
2022-09-07T02:39:37.080Z,15.10
2022-09-07T02:42:04.443Z,15.20
2022-09-07T02:44:34.839Z,15.20
2022-09-07T02:47:04.811Z,15.20
2022-09-07T02:49:51.219Z,15.20
2022-09-07T02:52:20.905Z,15.30
2022-09-07T02:54:53.158Z,15.30
2022-09-07T02:57:46.652Z,15.30
2022-09-07T03:00:16.135Z,15.30
2022-09-07T03:03:08.564Z,15.40
2022-09-07T03:05:58.277Z,15.40
2022-09-07T03:08:28.553Z,15.40
2022-09-07T03:10:56.224Z,15.40
2022-09-07T03:13:26.990Z,15.40
2022-09-07T03:15:56.247Z,15.40
2022-09-07T03:18:24.801Z,15.40
2022-09-07T03:20:51.952Z,15.40
2022-09-07T03:23:19.253Z,15.40
2022-09-07T03:25:48.053Z,15.40
2022-09-07T03:28:14.894Z,15.50
2022-09-07T03:30:44.380Z,15.40
2022-09-07T03:33:11.251Z,15.50
2022-09-07T03:35:38.104Z,15.50
2022-09-07T03:38:05.424Z,15.40
2022-09-07T03:40:32.178Z,15.50
2022-09-07T03:42:58.929Z,15.50
2022-09-07T03:45:25.909Z,15.50
2022-09-07T03:47:52.923Z,15.50
2022-09-07T03:50:19.765Z,15.50
2022-09-07T03:52:46.972Z,15.50
2022-09-07T03:55:13.877Z,15.60
2022-09-07T03:57:40.694Z,15.60
2022-09-07T04:00:08.135Z,15.60
2022-09-07T04:02:41.057Z,15.60
2022-09-07T04:05:08.140Z,15.60
2022-09-07T04:07:36.790Z,15.60
2022-09-07T04:10:04.342Z,15.70
2022-09-07T04:12:30.988Z,15.70
2022-09-07T04:14:58.124Z,15.70
2022-09-07T04:17:24.977Z,15.70
2022-09-07T04:19:52.289Z,15.70
2022-09-07T04:22:19.319Z,15.70
2022-09-07T04:24:46.174Z,15.70
2022-09-07T04:27:12.969Z,15.70
2022-09-07T04:29:41.794Z,15.70
2022-09-07T04:32:12.377Z,15.70
2022-09-07T04:34:41.856Z,15.70
2022-09-07T04:37:09.012Z,15.80
2022-09-07T04:39:35.745Z,15.80
2022-09-07T04:42:03.051Z,15.80
2022-09-07T04:44:30.130Z,15.80
2022-09-07T04:46:56.891Z,15.90
2022-09-07T04:49:24.067Z,16.00
2022-09-07T04:51:50.983Z,16.00
2022-09-07T04:54:17.920Z,16.00
2022-09-07T04:56:45.106Z,16.10
2022-09-07T04:59:12.082Z,16.10
2022-09-07T05:01:38.853Z,16.10
2022-09-07T05:04:05.919Z,16.20
2022-09-07T05:06:32.787Z,16.20
2022-09-07T05:09:00.407Z,16.20
2022-09-07T05:11:29.414Z,16.20
2022-09-07T05:14:00.681Z,16.20
2022-09-07T05:16:28.037Z,16.20
2022-09-07T05:18:57.531Z,16.20
2022-09-07T05:21:25.392Z,16.30
2022-09-07T05:23:53.855Z,16.30
2022-09-07T05:26:21.503Z,16.30
2022-09-07T05:28:48.941Z,16.30
2022-09-07T05:31:19.108Z,16.40
2022-09-07T05:36:38.271Z,16.50
2022-09-07T05:39:05.676Z,16.60
2022-09-07T05:41:32.440Z,16.60
2022-09-07T05:46:46.511Z,16.70
2022-09-07T05:49:13.452Z,16.70
2022-09-07T05:51:40.461Z,16.80
2022-09-07T05:54:07.146Z,16.80
2022-09-07T05:56:35.802Z,16.80
2022-09-07T05:59:02.888Z,16.90
2022-09-07T06:01:29.648Z,17.00
2022-09-07T06:03:56.825Z,17.00
2022-09-07T06:06:23.849Z,17.00
2022-09-07T06:08:52.330Z,17.10
2022-09-07T06:11:20.290Z,17.20
2022-09-07T06:13:47.355Z,17.20
2022-09-07T06:16:14.784Z,17.20
2022-09-07T06:18:42.889Z,17.30
2022-09-07T06:21:11.173Z,17.30
2022-09-07T06:23:38.475Z,17.40
2022-09-07T06:26:05.938Z,17.40
2022-09-07T06:28:34.167Z,17.50
2022-09-07T06:31:01.778Z,17.60
2022-09-07T06:33:28.799Z,17.60
2022-09-07T06:35:56.730Z,17.70
2022-09-07T06:38:23.531Z,17.80
2022-09-07T06:40:50.853Z,17.80
2022-09-07T06:43:20.556Z,17.80
2022-09-07T06:45:56.871Z,17.90
2022-09-07T06:48:24.226Z,18.00
2022-09-07T06:51:01.812Z,18.00
2022-09-07T06:56:00.224Z,18.10
2022-09-07T06:58:27.490Z,18.20
2022-09-07T07:00:55.358Z,18.30
2022-09-07T07:03:22.471Z,18.30
2022-09-07T07:05:53.947Z,18.40
2022-09-07T07:08:21.330Z,18.50
2022-09-07T07:10:48.409Z,18.60
2022-09-07T07:15:41.225Z,18.80
2022-09-07T07:18:20.255Z,19.00
2022-09-07T07:20:56.495Z,19.10
2022-09-07T07:23:23.479Z,19.30
2022-09-07T07:25:51.193Z,19.50
2022-09-07T07:31:09.879Z,20.00
2022-09-07T07:33:39.255Z,20.20
2022-09-07T07:36:15.757Z,20.40
2022-09-07T07:44:14.416Z,20.90
2022-09-07T07:46:41.492Z,21.10
2022-09-07T07:49:08.190Z,21.30
2022-09-07T07:52:49.952Z,21.30
2022-09-07T07:54:23.102Z,21.40
2022-09-07T07:56:49.998Z,21.50
2022-09-07T07:59:16.645Z,21.60
2022-09-07T08:01:43.972Z,21.80
2022-09-07T08:04:11.122Z,21.80
2022-09-07T08:06:42.434Z,21.90
2022-09-07T08:09:09.497Z,21.80
2022-09-07T08:11:36.768Z,22.00
2022-09-07T08:14:06.072Z,22.30
2022-09-07T08:16:34.025Z,22.40
2022-09-07T08:19:01.946Z,22.70
2022-09-07T08:21:30.984Z,22.80
2022-09-07T08:24:00.004Z,22.90
2022-09-07T08:26:27.435Z,23.00
2022-09-07T08:28:55.460Z,23.10
2022-09-07T08:31:22.453Z,23.20
2022-09-07T08:33:49.674Z,23.30
2022-09-07T08:36:18.256Z,23.30
2022-09-07T08:38:45.395Z,23.40
2022-09-07T08:41:21.574Z,23.50
2022-09-07T08:44:00.012Z,23.60
2022-09-07T08:46:31.300Z,23.70
2022-09-07T08:48:59.643Z,23.70
2022-09-07T08:51:43.482Z,23.90
2022-09-07T08:54:13.042Z,23.90
2022-09-07T08:57:20.434Z,24.10
2022-09-07T08:59:40.430Z,24.20
2022-09-07T09:02:32.649Z,24.30
2022-09-07T09:05:19.775Z,24.50
2022-09-07T09:07:59.463Z,24.70
2022-09-07T09:10:36.987Z,24.80
2022-09-07T09:13:22.714Z,25.00
2022-09-07T09:15:53.315Z,25.00
2022-09-07T09:18:42.593Z,25.10
2022-09-07T09:21:14.025Z,25.20
2022-09-07T09:23:42.181Z,25.20
2022-09-07T09:26:18.099Z,25.20
2022-09-07T09:28:45.077Z,25.20
2022-09-07T09:31:20.288Z,25.20
2022-09-07T09:34:17.845Z,25.30
2022-09-07T09:36:48.969Z,25.20
2022-09-07T09:39:26.235Z,25.20
2022-09-07T09:41:57.745Z,25.30
2022-09-07T09:44:27.340Z,25.40
2022-09-07T09:49:44.683Z,25.70
2022-09-07T09:52:41.859Z,25.80
2022-09-07T09:55:30.605Z,25.80
2022-09-07T10:03:59.692Z,26.00
2022-09-07T10:06:28.178Z,26.10
2022-09-07T10:08:57.003Z,26.00
2022-09-07T10:14:28.203Z,26.10
2022-09-07T10:16:55.780Z,26.30
2022-09-07T10:19:22.758Z,26.30
2022-09-07T10:21:55.479Z,26.30
2022-09-07T10:24:25.579Z,26.30
2022-09-07T10:26:52.794Z,26.40
2022-09-07T10:29:22.886Z,26.50
2022-09-07T10:31:52.958Z,26.60
2022-09-07T10:34:26.374Z,26.70
2022-09-07T10:36:59.480Z,26.80
2022-09-07T10:39:28.386Z,26.90
2022-09-07T10:42:23.200Z,27.00
2022-09-07T10:44:50.857Z,27.10
2022-09-07T10:47:37.418Z,27.30
2022-09-07T10:50:23.000Z,27.50
2022-09-07T10:53:36.668Z,27.50
2022-09-07T10:56:05.771Z,27.70
2022-09-07T10:59:06.849Z,27.80
2022-09-07T11:01:52.812Z,27.90
2022-09-07T11:04:29.678Z,28.00
2022-09-07T11:07:36.283Z,28.00
2022-09-07T11:10:11.542Z,28.20
2022-09-07T11:12:39.791Z,28.30
2022-09-07T11:15:29.928Z,28.40
2022-09-07T11:17:59.779Z,28.60
2022-09-07T11:20:26.667Z,28.50
2022-09-07T11:22:58.762Z,28.60
2022-09-07T11:25:35.543Z,28.60
2022-09-07T11:28:07.489Z,28.70
2022-09-07T11:30:37.400Z,28.60
2022-09-07T11:33:20.750Z,28.50
2022-09-07T11:36:00.959Z,28.40
2022-09-07T11:38:33.711Z,28.30
2022-09-07T11:41:06.633Z,28.40
2022-09-07T11:43:37.069Z,28.40
2022-09-07T11:46:06.604Z,28.60
2022-09-07T11:48:38.655Z,28.70
2022-09-07T11:51:15.086Z,28.80
2022-09-07T11:53:49.275Z,28.80
2022-09-07T11:56:36.212Z,28.80
2022-09-07T11:59:14.802Z,28.80
2022-09-07T12:01:51.433Z,28.80
2022-09-07T12:04:35.592Z,28.80
2022-09-07T12:07:06.310Z,28.70
2022-09-07T12:09:39.398Z,28.60
2022-09-07T12:12:08.865Z,28.60
2022-09-07T12:14:45.151Z,28.50
2022-09-07T12:17:24.231Z,28.60
2022-09-07T12:20:09.495Z,28.50
2022-09-07T12:22:38.712Z,28.40
2022-09-07T12:25:09.360Z,28.50
2022-09-07T12:27:36.805Z,28.50
2022-09-07T12:30:04.249Z,28.60
2022-09-07T12:32:57.453Z,28.50
2022-09-07T12:35:34.361Z,28.60
2022-09-07T12:38:06.996Z,28.70
2022-09-07T12:40:37.732Z,28.70
2022-09-07T12:43:14.095Z,28.70
2022-09-07T12:45:41.473Z,28.80
2022-09-07T12:48:20.651Z,28.80
2022-09-07T12:51:11.718Z,28.80
2022-09-07T12:53:38.673Z,28.90
2022-09-07T12:56:18.953Z,28.90
2022-09-07T12:59:01.936Z,28.80
2022-09-07T13:01:41.181Z,28.80
2022-09-07T13:04:18.872Z,28.80
2022-09-07T13:07:02.175Z,28.80
2022-09-07T13:09:31.299Z,28.70
2022-09-07T13:11:58.441Z,28.70
2022-09-07T13:14:26.801Z,28.60
2022-09-07T13:17:19.500Z,28.60
2022-09-07T13:19:46.680Z,28.60
2022-09-07T13:22:32.359Z,28.50
2022-09-07T13:25:00.617Z,28.30
2022-09-07T13:27:38.933Z,28.40
2022-09-07T13:30:15.087Z,28.40
2022-09-07T13:35:31.270Z,28.30
2022-09-07T13:37:59.845Z,28.30
2022-09-07T13:40:31.931Z,28.30
2022-09-07T13:42:59.407Z,28.30
2022-09-07T13:45:45.638Z,28.30
2022-09-07T13:48:24.088Z,28.30
2022-09-07T13:51:10.635Z,28.40
2022-09-07T13:53:41.223Z,28.30
2022-09-07T13:56:07.933Z,28.30
2022-09-07T13:58:46.585Z,28.30
2022-09-07T14:01:13.618Z,28.30
2022-09-07T14:04:00.096Z,28.30
2022-09-07T14:06:28.417Z,28.40
2022-09-07T14:08:56.454Z,28.40
2022-09-07T14:11:26.660Z,28.50
2022-09-07T14:14:08.778Z,28.60
2022-09-07T14:16:38.390Z,28.60
2022-09-07T14:19:33.733Z,28.50
2022-09-07T14:22:03.175Z,28.60
2022-09-07T14:24:30.120Z,28.50
2022-09-07T14:26:58.471Z,28.50
2022-09-07T14:29:26.997Z,28.50
2022-09-07T14:31:54.434Z,28.50
2022-09-07T14:34:23.307Z,28.40
2022-09-07T14:36:51.556Z,28.30
2022-09-07T14:39:22.185Z,28.30
2022-09-07T14:41:49.416Z,28.30
2022-09-07T14:44:28.431Z,28.20
2022-09-07T14:46:57.300Z,28.10
2022-09-07T14:49:24.449Z,28.00
2022-09-07T14:51:52.368Z,28.00
2022-09-07T14:54:37.444Z,27.90
2022-09-07T14:57:13.347Z,27.80
2022-09-07T14:59:40.686Z,27.70
2022-09-07T15:02:19.967Z,27.70
2022-09-07T15:04:47.599Z,27.70
2022-09-07T15:07:30.752Z,27.60
2022-09-07T15:10:12.317Z,27.60
2022-09-07T15:12:41.674Z,27.50
2022-09-07T15:15:26.200Z,27.40
2022-09-07T15:18:04.368Z,27.40
2022-09-07T15:20:43.331Z,27.40
2022-09-07T15:23:11.554Z,27.30
2022-09-07T15:25:40.714Z,27.30
2022-09-07T15:28:08.514Z,27.20
2022-09-07T15:30:41.950Z,27.10
2022-09-07T15:33:09.120Z,27.00
2022-09-07T15:35:35.853Z,27.00
2022-09-07T15:38:04.921Z,26.90
2022-09-07T15:40:47.328Z,26.90
2022-09-07T15:43:28.307Z,26.90
2022-09-07T15:45:55.904Z,26.80
2022-09-07T15:48:25.345Z,26.80
2022-09-07T15:51:04.497Z,26.70
2022-09-07T15:56:20.142Z,26.50
2022-09-07T15:58:51.519Z,26.40
2022-09-07T16:04:06.768Z,26.20
2022-09-07T16:06:35.900Z,26.10
2022-09-07T16:09:06.179Z,26.00
2022-09-07T16:11:35.315Z,26.00
2022-09-07T16:14:05.869Z,25.90
2022-09-07T16:19:21.197Z,25.80
2022-09-07T16:21:47.974Z,25.70
2022-09-07T16:24:14.903Z,25.60
2022-09-07T16:26:44.193Z,25.50
2022-09-07T16:29:11.122Z,25.40
2022-09-07T16:31:38.130Z,25.30
2022-09-07T16:34:05.941Z,25.20
2022-09-07T16:36:32.625Z,25.20
2022-09-07T16:39:01.186Z,25.10
2022-09-07T16:41:31.211Z,25.00
2022-09-07T16:43:58.923Z,24.90
2022-09-07T16:46:27.102Z,24.80
2022-09-07T16:48:54.273Z,24.80
2022-09-07T16:51:22.012Z,24.70
2022-09-07T16:53:49.392Z,24.60
2022-09-07T16:56:17.689Z,24.50
2022-09-07T16:58:48.548Z,24.40
2022-09-07T17:01:17.260Z,24.30
2022-09-07T17:03:44.893Z,24.20
2022-09-07T17:06:13.002Z,24.00
2022-09-07T17:08:40.405Z,23.90
2022-09-07T17:11:08.894Z,23.80
2022-09-07T17:13:36.612Z,23.70
2022-09-07T17:16:04.233Z,23.60
2022-09-07T17:21:19.794Z,23.40
2022-09-07T17:23:54.236Z,23.30
2022-09-07T17:26:22.540Z,23.20
2022-09-07T17:28:53.081Z,23.10
2022-09-07T17:34:10.322Z,22.90
2022-09-07T17:36:37.093Z,22.80
2022-09-07T17:39:19.920Z,22.70
2022-09-07T17:41:48.841Z,22.50
2022-09-07T17:44:15.751Z,22.40
2022-09-07T17:46:42.526Z,22.30
2022-09-07T17:49:12.566Z,22.30
2022-09-07T17:51:39.612Z,22.20
2022-09-07T17:54:11.489Z,22.10
2022-09-07T17:56:39.214Z,21.90
2022-09-07T18:01:58.252Z,21.80
2022-09-07T18:04:25.268Z,21.60
2022-09-07T18:06:53.200Z,21.60
2022-09-07T18:09:20.041Z,21.40
2022-09-07T18:11:48.978Z,21.30
2022-09-07T18:14:16.743Z,21.20
2022-09-07T18:16:45.167Z,21.10
2022-09-07T18:19:12.331Z,21.10
2022-09-07T18:21:40.941Z,21.00
2022-09-07T18:24:13.435Z,20.90
2022-09-07T18:26:40.793Z,20.80
2022-09-07T18:29:15.859Z,20.80
2022-09-07T18:31:46.029Z,20.70
2022-09-07T18:34:12.982Z,20.60
2022-09-07T18:36:45.334Z,20.60
2022-09-07T18:39:14.339Z,20.50
2022-09-07T18:41:42.496Z,20.40
2022-09-07T18:46:58.329Z,20.30
2022-09-07T18:49:25.224Z,20.30
2022-09-07T18:54:39.612Z,20.30
2022-09-07T18:57:07.302Z,20.20
2022-09-07T18:59:34.052Z,20.20
2022-09-07T19:02:05.002Z,20.20
2022-09-07T19:07:28.795Z,20.10
2022-09-07T19:09:56.793Z,20.20
2022-09-07T19:12:24.555Z,20.10
2022-09-07T19:14:53.761Z,20.10
2022-09-07T19:17:20.439Z,20.10
2022-09-07T19:19:48.325Z,20.10
2022-09-07T19:22:16.124Z,20.10
2022-09-07T19:24:42.823Z,20.00
2022-09-07T19:27:11.062Z,20.00
2022-09-07T19:29:40.314Z,20.00
2022-09-07T19:32:08.084Z,20.00
2022-09-07T19:34:44.275Z,19.90
2022-09-07T19:37:12.650Z,19.90
2022-09-07T19:39:41.733Z,19.80
2022-09-07T19:42:09.630Z,19.80
2022-09-07T19:44:38.702Z,19.80
2022-09-07T19:47:13.111Z,19.70
2022-09-07T19:49:39.960Z,19.70
2022-09-07T19:52:07.890Z,19.70
2022-09-07T19:54:36.249Z,19.60
2022-09-07T19:57:05.125Z,19.60
2022-09-07T19:59:32.159Z,19.60
2022-09-07T20:01:59.981Z,19.50
2022-09-07T20:04:28.205Z,19.50
2022-09-07T20:06:56.692Z,19.50
2022-09-07T20:09:23.432Z,19.40
2022-09-07T20:11:51.924Z,19.40
2022-09-07T20:14:19.375Z,19.40
2022-09-07T20:16:47.389Z,19.30
2022-09-07T20:19:17.496Z,19.30
2022-09-07T20:21:48.494Z,19.20
2022-09-07T20:24:15.266Z,19.20
2022-09-07T20:26:42.101Z,19.10
2022-09-07T20:29:26.776Z,19.10
2022-09-07T20:31:54.934Z,19.00
2022-09-07T20:34:21.785Z,19.00
2022-09-07T20:36:51.280Z,18.90
2022-09-07T20:39:18.063Z,18.90
2022-09-07T20:41:45.417Z,18.80
2022-09-07T20:44:12.733Z,18.80
2022-09-07T20:46:39.763Z,18.80
2022-09-07T20:49:07.931Z,18.80
2022-09-07T20:51:35.494Z,18.80
2022-09-07T20:54:03.596Z,18.80
2022-09-07T20:56:30.713Z,18.70
2022-09-07T20:59:00.347Z,18.70
2022-09-07T21:01:27.683Z,18.60
2022-09-07T21:03:55.491Z,18.50
2022-09-07T21:06:22.940Z,18.50
2022-09-07T21:08:54.468Z,18.50
2022-09-07T21:11:25.954Z,18.40
2022-09-07T21:14:00.736Z,18.40
2022-09-07T21:16:28.151Z,18.30
2022-09-07T21:18:56.264Z,18.30
2022-09-07T21:21:23.740Z,18.30
2022-09-07T21:23:57.774Z,18.30
2022-09-07T21:26:25.170Z,18.30
2022-09-07T21:28:59.737Z,18.20
2022-09-07T21:31:27.503Z,18.20
2022-09-07T21:33:58.416Z,18.20
2022-09-07T21:36:25.954Z,18.10
2022-09-07T21:38:53.264Z,18.10
2022-09-07T21:41:20.994Z,18.10
2022-09-07T21:43:47.865Z,18.10
2022-09-07T21:46:16.556Z,18.10
2022-09-07T21:48:43.685Z,18.10
2022-09-07T21:51:12.633Z,18.00
2022-09-07T21:53:39.474Z,18.00
2022-09-07T21:56:07.311Z,17.90
2022-09-07T21:58:36.227Z,17.80
2022-09-07T22:01:28.955Z,17.80
2022-09-07T22:03:59.762Z,17.80
2022-09-07T22:06:31.253Z,17.70
2022-09-07T22:08:58.880Z,17.80
2022-09-07T22:11:27.035Z,17.70
2022-09-07T22:13:57.469Z,17.60
2022-09-07T22:16:24.808Z,17.60
2022-09-07T22:18:52.068Z,17.60
2022-09-07T22:21:23.960Z,17.60
2022-09-07T22:23:52.566Z,17.60
2022-09-07T22:26:21.036Z,17.60
2022-09-07T22:28:48.058Z,17.50
2022-09-07T22:31:17.176Z,17.50
2022-09-07T22:33:45.047Z,17.50
2022-09-07T22:36:16.002Z,17.50
2022-09-07T22:38:44.253Z,17.50
2022-09-07T22:41:12.613Z,17.50
2022-09-07T22:43:40.670Z,17.50
2022-09-07T22:46:07.910Z,17.40
2022-09-07T22:48:35.963Z,17.50
2022-09-07T22:51:03.439Z,17.50
2022-09-07T22:53:32.139Z,17.50
2022-09-07T22:56:00.031Z,17.50
2022-09-07T22:58:28.939Z,17.50
2022-09-07T23:00:59.670Z,17.50
2022-09-07T23:03:28.125Z,17.50
2022-09-07T23:05:56.587Z,17.40
2022-09-07T23:08:27.308Z,17.50
2022-09-07T23:10:54.604Z,17.40
2022-09-07T23:13:21.530Z,17.40
2022-09-07T23:15:48.925Z,17.40
2022-09-07T23:18:20.588Z,17.40
2022-09-07T23:20:47.759Z,17.40
2022-09-07T23:23:16.060Z,17.40
2022-09-07T23:25:43.751Z,17.50
2022-09-07T23:28:12.634Z,17.40
2022-09-07T23:30:42.460Z,17.40
2022-09-07T23:33:09.147Z,17.40
2022-09-07T23:35:35.789Z,17.40
2022-09-07T23:38:04.516Z,17.40
2022-09-07T23:40:32.679Z,17.40
2022-09-07T23:43:00.673Z,17.40
2022-09-07T23:45:29.729Z,17.40
2022-09-07T23:47:56.700Z,17.40
2022-09-07T23:50:23.400Z,17.30
2022-09-07T23:52:50.250Z,17.30
2022-09-07T23:55:17.281Z,17.30
2022-09-07T23:57:43.997Z,17.30
